sensor_id;sensor_type;location;lat;lon;timestamp;P1;durP1;ratioP1;P2;durP2;ratioP2
61685;SDS011;47592;45.904;8.978;2022-11-15T00:00:05;11.13;;;6.90;;
61685;SDS011;47592;45.904;8.978;2022-11-15T00:02:31;10.20;;;6.22;;
61685;SDS011;47592;45.904;8.978;2022-11-15T00:04:56;10.57;;;6.63;;
61685;SDS011;47592;45.904;8.978;2022-11-15T00:07:22;10.40;;;6.60;;
61685;SDS011;47592;45.904;8.978;2022-11-15T00:09:47;9.82;;;6.65;;
61685;SDS011;47592;45.904;8.978;2022-11-15T00:12:13;11.32;;;6.90;;
61685;SDS011;47592;45.904;8.978;2022-11-15T00:14:38;11.27;;;6.90;;
61685;SDS011;47592;45.904;8.978;2022-11-15T00:17:04;11.15;;;6.43;;
61685;SDS011;47592;45.904;8.978;2022-11-15T00:19:29;9.73;;;6.38;;
61685;SDS011;47592;45.904;8.978;2022-11-15T00:21:54;10.25;;;6.53;;
61685;SDS011;47592;45.904;8.978;2022-11-15T00:24:20;9.95;;;6.30;;
61685;SDS011;47592;45.904;8.978;2022-11-15T00:26:45;10.52;;;6.32;;
61685;SDS011;47592;45.904;8.978;2022-11-15T00:29:11;10.07;;;6.80;;
61685;SDS011;47592;45.904;8.978;2022-11-15T00:31:36;10.02;;;6.13;;
61685;SDS011;47592;45.904;8.978;2022-11-15T00:34:01;9.05;;;5.85;;
61685;SDS011;47592;45.904;8.978;2022-11-15T00:36:27;11.57;;;6.75;;
61685;SDS011;47592;45.904;8.978;2022-11-15T00:38:52;9.55;;;6.32;;
61685;SDS011;47592;45.904;8.978;2022-11-15T00:41:18;11.88;;;6.40;;
61685;SDS011;47592;45.904;8.978;2022-11-15T00:43:43;9.50;;;6.35;;
61685;SDS011;47592;45.904;8.978;2022-11-15T00:46:09;9.10;;;5.75;;
61685;SDS011;47592;45.904;8.978;2022-11-15T00:48:35;10.63;;;6.20;;
61685;SDS011;47592;45.904;8.978;2022-11-15T00:51:01;11.43;;;7.03;;
61685;SDS011;47592;45.904;8.978;2022-11-15T00:53:26;9.73;;;6.25;;
61685;SDS011;47592;45.904;8.978;2022-11-15T00:55:52;10.55;;;6.35;;
61685;SDS011;47592;45.904;8.978;2022-11-15T00:58:17;10.13;;;5.78;;
61685;SDS011;47592;45.904;8.978;2022-11-15T01:00:43;10.68;;;6.60;;
61685;SDS011;47592;45.904;8.978;2022-11-15T01:03:08;9.68;;;5.60;;
61685;SDS011;47592;45.904;8.978;2022-11-15T01:05:36;10.30;;;6.00;;
61685;SDS011;47592;45.904;8.978;2022-11-15T01:08:02;10.48;;;5.82;;
61685;SDS011;47592;45.904;8.978;2022-11-15T01:10:28;11.23;;;6.15;;
61685;SDS011;47592;45.904;8.978;2022-11-15T01:12:53;9.68;;;5.90;;
61685;SDS011;47592;45.904;8.978;2022-11-15T01:15:19;9.75;;;6.32;;
61685;SDS011;47592;45.904;8.978;2022-11-15T01:17:44;12.32;;;6.65;;
61685;SDS011;47592;45.904;8.978;2022-11-15T01:20:10;10.88;;;6.40;;
61685;SDS011;47592;45.904;8.978;2022-11-15T01:22:35;10.52;;;6.32;;
61685;SDS011;47592;45.904;8.978;2022-11-15T01:25:01;10.90;;;6.05;;
61685;SDS011;47592;45.904;8.978;2022-11-15T01:27:26;10.95;;;6.47;;
61685;SDS011;47592;45.904;8.978;2022-11-15T01:29:52;9.95;;;6.18;;
61685;SDS011;47592;45.904;8.978;2022-11-15T01:32:17;11.98;;;6.15;;
61685;SDS011;47592;45.904;8.978;2022-11-15T01:34:43;9.88;;;6.43;;
61685;SDS011;47592;45.904;8.978;2022-11-15T01:37:08;9.65;;;5.85;;
61685;SDS011;47592;45.904;8.978;2022-11-15T01:39:34;9.32;;;5.45;;
61685;SDS011;47592;45.904;8.978;2022-11-15T01:41:59;9.57;;;6.10;;
61685;SDS011;47592;45.904;8.978;2022-11-15T01:47:00;10.18;;;6.25;;
61685;SDS011;47592;45.904;8.978;2022-11-15T01:49:27;11.10;;;6.72;;
61685;SDS011;47592;45.904;8.978;2022-11-15T01:51:54;10.38;;;6.35;;
61685;SDS011;47592;45.904;8.978;2022-11-15T01:54:20;10.07;;;5.72;;
61685;SDS011;47592;45.904;8.978;2022-11-15T01:56:48;10.15;;;6.25;;
61685;SDS011;47592;45.904;8.978;2022-11-15T01:59:20;11.40;;;6.10;;
61685;SDS011;47592;45.904;8.978;2022-11-15T02:01:47;10.25;;;6.80;;
61685;SDS011;47592;45.904;8.978;2022-11-15T02:04:13;10.70;;;6.03;;
61685;SDS011;47592;45.904;8.978;2022-11-15T02:06:41;9.32;;;6.10;;
61685;SDS011;47592;45.904;8.978;2022-11-15T02:09:08;8.27;;;5.40;;
61685;SDS011;47592;45.904;8.978;2022-11-15T02:11:33;11.75;;;6.82;;
61685;SDS011;47592;45.904;8.978;2022-11-15T02:13:59;10.27;;;6.32;;
61685;SDS011;47592;45.904;8.978;2022-11-15T02:16:28;11.48;;;5.80;;
61685;SDS011;47592;45.904;8.978;2022-11-15T02:30:38;9.35;;;5.60;;
61685;SDS011;47592;45.904;8.978;2022-11-15T02:36:13;10.07;;;6.10;;
61685;SDS011;47592;45.904;8.978;2022-11-15T02:41:49;9.95;;;6.05;;
61685;SDS011;47592;45.904;8.978;2022-11-15T02:44:39;10.15;;;6.18;;
61685;SDS011;47592;45.904;8.978;2022-11-15T02:47:10;10.43;;;5.90;;
61685;SDS011;47592;45.904;8.978;2022-11-15T02:52:16;12.27;;;6.03;;
61685;SDS011;47592;45.904;8.978;2022-11-15T02:57:12;9.02;;;5.07;;
61685;SDS011;47592;45.904;8.978;2022-11-15T03:11:16;10.88;;;5.63;;
61685;SDS011;47592;45.904;8.978;2022-11-15T03:16:15;10.93;;;5.88;;
61685;SDS011;47592;45.904;8.978;2022-11-15T03:18:47;9.63;;;5.72;;
61685;SDS011;47592;45.904;8.978;2022-11-15T03:21:17;10.52;;;5.72;;
61685;SDS011;47592;45.904;8.978;2022-11-15T03:23:44;10.07;;;5.90;;
61685;SDS011;47592;45.904;8.978;2022-11-15T03:26:11;9.05;;;5.07;;
61685;SDS011;47592;45.904;8.978;2022-11-15T03:31:07;8.77;;;5.38;;
61685;SDS011;47592;45.904;8.978;2022-11-15T03:33:53;8.23;;;4.65;;
61685;SDS011;47592;45.904;8.978;2022-11-15T03:36:21;9.90;;;6.05;;
61685;SDS011;47592;45.904;8.978;2022-11-15T03:38:47;9.88;;;5.65;;
61685;SDS011;47592;45.904;8.978;2022-11-15T03:41:15;9.95;;;4.97;;
61685;SDS011;47592;45.904;8.978;2022-11-15T03:46:49;8.90;;;5.38;;
61685;SDS011;47592;45.904;8.978;2022-11-15T03:49:29;9.65;;;5.22;;
61685;SDS011;47592;45.904;8.978;2022-11-15T03:51:58;11.23;;;5.82;;
61685;SDS011;47592;45.904;8.978;2022-11-15T03:54:24;9.38;;;5.53;;
61685;SDS011;47592;45.904;8.978;2022-11-15T03:56:49;10.27;;;5.40;;
61685;SDS011;47592;45.904;8.978;2022-11-15T03:59:15;7.80;;;4.75;;
61685;SDS011;47592;45.904;8.978;2022-11-15T04:01:40;9.93;;;5.30;;
61685;SDS011;47592;45.904;8.978;2022-11-15T04:04:05;9.93;;;5.45;;
61685;SDS011;47592;45.904;8.978;2022-11-15T04:06:31;8.57;;;4.90;;
61685;SDS011;47592;45.904;8.978;2022-11-15T04:08:56;8.00;;;4.80;;
61685;SDS011;47592;45.904;8.978;2022-11-15T04:11:22;9.07;;;5.10;;
61685;SDS011;47592;45.904;8.978;2022-11-15T04:13:47;8.73;;;5.43;;
61685;SDS011;47592;45.904;8.978;2022-11-15T04:16:12;7.85;;;4.65;;
61685;SDS011;47592;45.904;8.978;2022-11-15T04:18:38;8.73;;;4.93;;
61685;SDS011;47592;45.904;8.978;2022-11-15T04:21:03;9.20;;;4.80;;
61685;SDS011;47592;45.904;8.978;2022-11-15T04:23:47;7.85;;;4.55;;
61685;SDS011;47592;45.904;8.978;2022-11-15T04:26:31;8.40;;;4.85;;
61685;SDS011;47592;45.904;8.978;2022-11-15T04:28:57;8.07;;;4.95;;
61685;SDS011;47592;45.904;8.978;2022-11-15T04:31:40;9.38;;;5.50;;
61685;SDS011;47592;45.904;8.978;2022-11-15T04:34:06;9.77;;;5.07;;
61685;SDS011;47592;45.904;8.978;2022-11-15T04:36:32;8.27;;;5.20;;
61685;SDS011;47592;45.904;8.978;2022-11-15T04:39:16;9.10;;;5.20;;
61685;SDS011;47592;45.904;8.978;2022-11-15T04:41:41;9.15;;;4.93;;
61685;SDS011;47592;45.904;8.978;2022-11-15T04:44:07;9.15;;;5.18;;
61685;SDS011;47592;45.904;8.978;2022-11-15T04:46:32;11.00;;;5.22;;
61685;SDS011;47592;45.904;8.978;2022-11-15T04:48:58;8.55;;;5.03;;
61685;SDS011;47592;45.904;8.978;2022-11-15T04:51:23;8.73;;;5.15;;
61685;SDS011;47592;45.904;8.978;2022-11-15T04:53:48;8.45;;;5.03;;
61685;SDS011;47592;45.904;8.978;2022-11-15T04:56:14;8.57;;;4.75;;
61685;SDS011;47592;45.904;8.978;2022-11-15T04:58:39;9.18;;;5.53;;
61685;SDS011;47592;45.904;8.978;2022-11-15T05:01:08;8.32;;;4.88;;
61685;SDS011;47592;45.904;8.978;2022-11-15T05:03:35;9.18;;;4.85;;
61685;SDS011;47592;45.904;8.978;2022-11-15T05:06:19;8.15;;;4.45;;
61685;SDS011;47592;45.904;8.978;2022-11-15T05:08:44;9.40;;;4.90;;
61685;SDS011;47592;45.904;8.978;2022-11-15T05:11:09;9.15;;;5.00;;
61685;SDS011;47592;45.904;8.978;2022-11-15T05:13:35;7.32;;;4.50;;
61685;SDS011;47592;45.904;8.978;2022-11-15T05:16:00;8.63;;;4.90;;
61685;SDS011;47592;45.904;8.978;2022-11-15T05:18:25;7.75;;;4.47;;
61685;SDS011;47592;45.904;8.978;2022-11-15T05:20:51;8.35;;;4.57;;
61685;SDS011;47592;45.904;8.978;2022-11-15T05:23:16;7.57;;;4.22;;
61685;SDS011;47592;45.904;8.978;2022-11-15T05:25:42;7.70;;;4.43;;
61685;SDS011;47592;45.904;8.978;2022-11-15T05:28:07;8.15;;;4.50;;
61685;SDS011;47592;45.904;8.978;2022-11-15T05:30:32;7.35;;;4.13;;
61685;SDS011;47592;45.904;8.978;2022-11-15T05:32:58;7.55;;;4.32;;
61685;SDS011;47592;45.904;8.978;2022-11-15T05:35:31;6.93;;;3.88;;
61685;SDS011;47592;45.904;8.978;2022-11-15T05:37:59;7.43;;;4.38;;
61685;SDS011;47592;45.904;8.978;2022-11-15T05:40:25;6.55;;;3.75;;
61685;SDS011;47592;45.904;8.978;2022-11-15T05:42:51;5.93;;;3.20;;
61685;SDS011;47592;45.904;8.978;2022-11-15T05:45:16;8.57;;;4.03;;
61685;SDS011;47592;45.904;8.978;2022-11-15T05:47:42;7.32;;;4.15;;
61685;SDS011;47592;45.904;8.978;2022-11-15T05:50:08;7.28;;;4.00;;
61685;SDS011;47592;45.904;8.978;2022-11-15T05:52:37;7.15;;;3.42;;
61685;SDS011;47592;45.904;8.978;2022-11-15T05:55:03;7.03;;;3.92;;
61685;SDS011;47592;45.904;8.978;2022-11-15T05:57:30;8.43;;;4.15;;
61685;SDS011;47592;45.904;8.978;2022-11-15T05:59:56;6.25;;;3.47;;
61685;SDS011;47592;45.904;8.978;2022-11-15T06:02:21;7.82;;;3.72;;
61685;SDS011;47592;45.904;8.978;2022-11-15T06:04:47;7.75;;;4.32;;
61685;SDS011;47592;45.904;8.978;2022-11-15T06:07:12;6.78;;;3.83;;
61685;SDS011;47592;45.904;8.978;2022-11-15T06:09:38;7.15;;;3.97;;
61685;SDS011;47592;45.904;8.978;2022-11-15T06:12:03;6.43;;;3.53;;
61685;SDS011;47592;45.904;8.978;2022-11-15T06:14:29;7.10;;;4.10;;
61685;SDS011;47592;45.904;8.978;2022-11-15T06:16:55;8.90;;;3.83;;
61685;SDS011;47592;45.904;8.978;2022-11-15T06:19:20;6.15;;;3.45;;
61685;SDS011;47592;45.904;8.978;2022-11-15T06:21:45;7.43;;;3.95;;
61685;SDS011;47592;45.904;8.978;2022-11-15T06:24:11;7.70;;;4.38;;
61685;SDS011;47592;45.904;8.978;2022-11-15T06:26:36;6.90;;;3.80;;
61685;SDS011;47592;45.904;8.978;2022-11-15T06:29:02;7.05;;;3.63;;
61685;SDS011;47592;45.904;8.978;2022-11-15T06:31:29;6.68;;;3.60;;
61685;SDS011;47592;45.904;8.978;2022-11-15T06:33:55;6.57;;;3.55;;
61685;SDS011;47592;45.904;8.978;2022-11-15T06:36:20;7.53;;;4.00;;
61685;SDS011;47592;45.904;8.978;2022-11-15T06:38:46;7.05;;;3.90;;
61685;SDS011;47592;45.904;8.978;2022-11-15T06:41:12;6.93;;;3.55;;
61685;SDS011;47592;45.904;8.978;2022-11-15T06:43:38;6.88;;;3.83;;
61685;SDS011;47592;45.904;8.978;2022-11-15T06:46:04;5.97;;;3.40;;
61685;SDS011;47592;45.904;8.978;2022-11-15T06:48:31;7.25;;;3.53;;
61685;SDS011;47592;45.904;8.978;2022-11-15T06:50:59;7.00;;;3.80;;
61685;SDS011;47592;45.904;8.978;2022-11-15T06:53:25;6.40;;;3.35;;
61685;SDS011;47592;45.904;8.978;2022-11-15T06:55:51;6.85;;;3.70;;
61685;SDS011;47592;45.904;8.978;2022-11-15T06:58:16;6.78;;;3.97;;
61685;SDS011;47592;45.904;8.978;2022-11-15T07:00:42;7.05;;;3.90;;
61685;SDS011;47592;45.904;8.978;2022-11-15T07:03:08;6.13;;;3.55;;
61685;SDS011;47592;45.904;8.978;2022-11-15T07:05:34;6.13;;;3.40;;
61685;SDS011;47592;45.904;8.978;2022-11-15T07:07:59;7.80;;;3.50;;
61685;SDS011;47592;45.904;8.978;2022-11-15T07:10:25;7.00;;;4.05;;
61685;SDS011;47592;45.904;8.978;2022-11-15T07:12:51;6.22;;;3.40;;
61685;SDS011;47592;45.904;8.978;2022-11-15T07:15:17;6.05;;;3.53;;
61685;SDS011;47592;45.904;8.978;2022-11-15T07:17:44;7.75;;;3.60;;
61685;SDS011;47592;45.904;8.978;2022-11-15T07:20:10;6.32;;;3.90;;
61685;SDS011;47592;45.904;8.978;2022-11-15T07:22:35;6.03;;;3.30;;
61685;SDS011;47592;45.904;8.978;2022-11-15T07:25:01;6.15;;;3.20;;
61685;SDS011;47592;45.904;8.978;2022-11-15T07:27:26;6.38;;;3.50;;
61685;SDS011;47592;45.904;8.978;2022-11-15T07:29:52;7.40;;;3.63;;
61685;SDS011;47592;45.904;8.978;2022-11-15T07:32:17;6.57;;;3.40;;
61685;SDS011;47592;45.904;8.978;2022-11-15T07:34:42;9.07;;;4.13;;
61685;SDS011;47592;45.904;8.978;2022-11-15T07:37:08;6.45;;;3.55;;
61685;SDS011;47592;45.904;8.978;2022-11-15T07:39:33;6.70;;;3.92;;
61685;SDS011;47592;45.904;8.978;2022-11-15T07:41:59;6.75;;;3.80;;
61685;SDS011;47592;45.904;8.978;2022-11-15T07:44:43;6.70;;;3.58;;
61685;SDS011;47592;45.904;8.978;2022-11-15T07:47:09;6.72;;;3.67;;
61685;SDS011;47592;45.904;8.978;2022-11-15T07:49:34;6.93;;;3.83;;
61685;SDS011;47592;45.904;8.978;2022-11-15T07:51:59;6.40;;;3.47;;
61685;SDS011;47592;45.904;8.978;2022-11-15T07:54:25;7.40;;;3.95;;
61685;SDS011;47592;45.904;8.978;2022-11-15T07:56:50;6.53;;;3.40;;
61685;SDS011;47592;45.904;8.978;2022-11-15T07:59:15;7.45;;;3.80;;
61685;SDS011;47592;45.904;8.978;2022-11-15T08:01:41;7.15;;;3.67;;
61685;SDS011;47592;45.904;8.978;2022-11-15T08:04:06;5.97;;;3.53;;
61685;SDS011;47592;45.904;8.978;2022-11-15T08:06:32;7.50;;;3.83;;
61685;SDS011;47592;45.904;8.978;2022-11-15T08:08:57;6.75;;;3.72;;
61685;SDS011;47592;45.904;8.978;2022-11-15T08:11:22;6.40;;;3.55;;
61685;SDS011;47592;45.904;8.978;2022-11-15T08:13:48;6.00;;;3.35;;
61685;SDS011;47592;45.904;8.978;2022-11-15T08:16:13;6.68;;;3.60;;
61685;SDS011;47592;45.904;8.978;2022-11-15T08:18:39;8.15;;;3.40;;
61685;SDS011;47592;45.904;8.978;2022-11-15T08:21:04;6.47;;;3.55;;
61685;SDS011;47592;45.904;8.978;2022-11-15T08:23:30;7.35;;;3.78;;
61685;SDS011;47592;45.904;8.978;2022-11-15T08:26:03;6.43;;;3.65;;
61685;SDS011;47592;45.904;8.978;2022-11-15T08:28:30;8.10;;;3.92;;
61685;SDS011;47592;45.904;8.978;2022-11-15T08:30:56;6.60;;;3.60;;
61685;SDS011;47592;45.904;8.978;2022-11-15T08:33:21;6.15;;;3.33;;
61685;SDS011;47592;45.904;8.978;2022-11-15T08:35:47;5.88;;;3.28;;
61685;SDS011;47592;45.904;8.978;2022-11-15T08:38:13;6.38;;;3.60;;
61685;SDS011;47592;45.904;8.978;2022-11-15T08:40:39;6.90;;;3.97;;
61685;SDS011;47592;45.904;8.978;2022-11-15T08:43:04;7.97;;;3.88;;
61685;SDS011;47592;45.904;8.978;2022-11-15T08:45:30;8.05;;;3.88;;
61685;SDS011;47592;45.904;8.978;2022-11-15T08:47:56;7.38;;;4.20;;
61685;SDS011;47592;45.904;8.978;2022-11-15T08:50:21;7.07;;;4.25;;
61685;SDS011;47592;45.904;8.978;2022-11-15T08:52:47;7.00;;;4.03;;
61685;SDS011;47592;45.904;8.978;2022-11-15T08:55:15;6.15;;;3.58;;
61685;SDS011;47592;45.904;8.978;2022-11-15T08:57:41;7.47;;;4.30;;
61685;SDS011;47592;45.904;8.978;2022-11-15T09:00:06;7.85;;;3.97;;
61685;SDS011;47592;45.904;8.978;2022-11-15T09:02:32;7.68;;;4.43;;
61685;SDS011;47592;45.904;8.978;2022-11-15T09:04:57;7.43;;;4.50;;
61685;SDS011;47592;45.904;8.978;2022-11-15T09:07:22;7.65;;;4.18;;
61685;SDS011;47592;45.904;8.978;2022-11-15T09:09:48;7.38;;;4.57;;
61685;SDS011;47592;45.904;8.978;2022-11-15T09:12:14;7.90;;;4.28;;
61685;SDS011;47592;45.904;8.978;2022-11-15T09:14:39;8.50;;;4.43;;
61685;SDS011;47592;45.904;8.978;2022-11-15T09:17:08;7.53;;;4.25;;
61685;SDS011;47592;45.904;8.978;2022-11-15T09:19:34;9.20;;;4.90;;
61685;SDS011;47592;45.904;8.978;2022-11-15T09:21:59;6.72;;;4.18;;
61685;SDS011;47592;45.904;8.978;2022-11-15T09:24:24;8.32;;;3.95;;
61685;SDS011;47592;45.904;8.978;2022-11-15T09:26:50;8.15;;;4.20;;
61685;SDS011;47592;45.904;8.978;2022-11-15T09:29:17;7.30;;;4.30;;
61685;SDS011;47592;45.904;8.978;2022-11-15T09:31:43;7.32;;;4.28;;
61685;SDS011;47592;45.904;8.978;2022-11-15T09:34:08;8.10;;;4.63;;
61685;SDS011;47592;45.904;8.978;2022-11-15T09:36:33;7.22;;;3.95;;
61685;SDS011;47592;45.904;8.978;2022-11-15T09:39:00;11.52;;;4.75;;
61685;SDS011;47592;45.904;8.978;2022-11-15T09:44:15;7.30;;;4.20;;
61685;SDS011;47592;45.904;8.978;2022-11-15T09:49:56;7.80;;;4.30;;
61685;SDS011;47592;45.904;8.978;2022-11-15T09:52:23;6.60;;;3.72;;
61685;SDS011;47592;45.904;8.978;2022-11-15T09:54:50;6.88;;;3.88;;
61685;SDS011;47592;45.904;8.978;2022-11-15T10:00:11;7.63;;;4.10;;
61685;SDS011;47592;45.904;8.978;2022-11-15T10:02:46;6.53;;;3.70;;
61685;SDS011;47592;45.904;8.978;2022-11-15T10:05:18;7.13;;;3.90;;
61685;SDS011;47592;45.904;8.978;2022-11-15T10:10:38;7.18;;;4.20;;
61685;SDS011;47592;45.904;8.978;2022-11-15T10:13:06;7.47;;;3.75;;
61685;SDS011;47592;45.904;8.978;2022-11-15T10:15:51;7.72;;;4.65;;
61685;SDS011;47592;45.904;8.978;2022-11-15T10:19:07;6.07;;;3.55;;
61685;SDS011;47592;45.904;8.978;2022-11-15T10:21:59;8.02;;;4.13;;
61685;SDS011;47592;45.904;8.978;2022-11-15T10:24:31;6.85;;;3.88;;
61685;SDS011;47592;45.904;8.978;2022-11-15T10:27:00;7.20;;;3.97;;
61685;SDS011;47592;45.904;8.978;2022-11-15T10:29:25;6.90;;;3.83;;
61685;SDS011;47592;45.904;8.978;2022-11-15T10:31:51;6.43;;;3.53;;
61685;SDS011;47592;45.904;8.978;2022-11-15T10:34:18;7.38;;;3.83;;
61685;SDS011;47592;45.904;8.978;2022-11-15T10:36:45;6.45;;;3.88;;
61685;SDS011;47592;45.904;8.978;2022-11-15T10:39:21;6.75;;;3.85;;
61685;SDS011;47592;45.904;8.978;2022-11-15T10:41:46;6.60;;;3.95;;
61685;SDS011;47592;45.904;8.978;2022-11-15T10:44:19;7.22;;;3.95;;
61685;SDS011;47592;45.904;8.978;2022-11-15T10:47:20;7.97;;;3.75;;
61685;SDS011;47592;45.904;8.978;2022-11-15T10:49:54;6.43;;;3.80;;
61685;SDS011;47592;45.904;8.978;2022-11-15T10:52:21;7.53;;;3.97;;
61685;SDS011;47592;45.904;8.978;2022-11-15T10:57:47;9.30;;;4.45;;
61685;SDS011;47592;45.904;8.978;2022-11-15T11:05:33;7.32;;;4.30;;
61685;SDS011;47592;45.904;8.978;2022-11-15T11:10:51;9.07;;;4.07;;
61685;SDS011;47592;45.904;8.978;2022-11-15T11:13:24;6.85;;;3.75;;
61685;SDS011;47592;45.904;8.978;2022-11-15T11:21:10;6.40;;;4.03;;
61685;SDS011;47592;45.904;8.978;2022-11-15T11:35:01;6.45;;;3.95;;
61685;SDS011;47592;45.904;8.978;2022-11-15T11:37:31;9.07;;;4.40;;
61685;SDS011;47592;45.904;8.978;2022-11-15T11:40:22;6.50;;;3.72;;
61685;SDS011;47592;45.904;8.978;2022-11-15T11:48:52;7.13;;;3.63;;
61685;SDS011;47592;45.904;8.978;2022-11-15T11:51:31;7.88;;;4.03;;
61685;SDS011;47592;45.904;8.978;2022-11-15T11:56:47;6.53;;;3.80;;
61685;SDS011;47592;45.904;8.978;2022-11-15T12:01:43;7.40;;;4.05;;
61685;SDS011;47592;45.904;8.978;2022-11-15T12:06:54;6.72;;;3.58;;
61685;SDS011;47592;45.904;8.978;2022-11-15T12:12:09;7.82;;;4.00;;
61685;SDS011;47592;45.904;8.978;2022-11-15T12:17:08;7.13;;;4.05;;
61685;SDS011;47592;45.904;8.978;2022-11-15T12:19:37;7.88;;;4.20;;
61685;SDS011;47592;45.904;8.978;2022-11-15T12:22:13;7.60;;;4.20;;
61685;SDS011;47592;45.904;8.978;2022-11-15T12:24:57;6.25;;;4.05;;
61685;SDS011;47592;45.904;8.978;2022-11-15T12:30:10;6.50;;;3.88;;
61685;SDS011;47592;45.904;8.978;2022-11-15T12:32:38;6.25;;;3.47;;
61685;SDS011;47592;45.904;8.978;2022-11-15T12:35:06;7.75;;;4.18;;
61685;SDS011;47592;45.904;8.978;2022-11-15T12:37:48;8.15;;;4.72;;
61685;SDS011;47592;45.904;8.978;2022-11-15T12:43:00;7.93;;;4.38;;
61685;SDS011;47592;45.904;8.978;2022-11-15T12:45:41;7.55;;;4.30;;
61685;SDS011;47592;45.904;8.978;2022-11-15T12:58:27;7.93;;;4.88;;
61685;SDS011;47592;45.904;8.978;2022-11-15T13:01:05;10.57;;;4.88;;
61685;SDS011;47592;45.904;8.978;2022-11-15T13:03:32;7.93;;;3.95;;
61685;SDS011;47592;45.904;8.978;2022-11-15T13:05:58;8.43;;;4.40;;
61685;SDS011;47592;45.904;8.978;2022-11-15T13:08:35;8.35;;;4.60;;
61685;SDS011;47592;45.904;8.978;2022-11-15T13:17:31;7.15;;;4.25;;
61685;SDS011;47592;45.904;8.978;2022-11-15T13:20:09;7.18;;;4.05;;
61685;SDS011;47592;45.904;8.978;2022-11-15T13:22:45;7.15;;;4.07;;
61685;SDS011;47592;45.904;8.978;2022-11-15T13:25:23;6.70;;;4.10;;
61685;SDS011;47592;45.904;8.978;2022-11-15T13:30:36;8.60;;;4.32;;
61685;SDS011;47592;45.904;8.978;2022-11-15T13:33:13;9.82;;;4.30;;
61685;SDS011;47592;45.904;8.978;2022-11-15T13:35:41;9.52;;;4.10;;
61685;SDS011;47592;45.904;8.978;2022-11-15T13:38:18;8.57;;;4.28;;
61685;SDS011;47592;45.904;8.978;2022-11-15T13:40:50;7.90;;;4.30;;
61685;SDS011;47592;45.904;8.978;2022-11-15T13:48:34;7.38;;;4.30;;
61685;SDS011;47592;45.904;8.978;2022-11-15T13:51:00;8.13;;;4.85;;
61685;SDS011;47592;45.904;8.978;2022-11-15T13:53:27;7.25;;;4.22;;
61685;SDS011;47592;45.904;8.978;2022-11-15T13:55:53;7.65;;;4.35;;
61685;SDS011;47592;45.904;8.978;2022-11-15T13:58:20;7.28;;;3.75;;
61685;SDS011;47592;45.904;8.978;2022-11-15T14:00:46;7.88;;;4.40;;
61685;SDS011;47592;45.904;8.978;2022-11-15T14:03:25;6.45;;;3.97;;
61685;SDS011;47592;45.904;8.978;2022-11-15T14:08:27;8.38;;;4.13;;
61685;SDS011;47592;45.904;8.978;2022-11-15T14:11:09;6.80;;;4.03;;
61685;SDS011;47592;45.904;8.978;2022-11-15T14:13:41;6.80;;;3.70;;
61685;SDS011;47592;45.904;8.978;2022-11-15T14:16:14;6.55;;;3.80;;
61685;SDS011;47592;45.904;8.978;2022-11-15T14:18:48;8.82;;;4.10;;
61685;SDS011;47592;45.904;8.978;2022-11-15T14:21:15;8.00;;;4.47;;
61685;SDS011;47592;45.904;8.978;2022-11-15T14:23:41;7.03;;;3.88;;
61685;SDS011;47592;45.904;8.978;2022-11-15T14:26:10;7.15;;;4.10;;
61685;SDS011;47592;45.904;8.978;2022-11-15T14:28:52;6.93;;;3.88;;
61685;SDS011;47592;45.904;8.978;2022-11-15T14:31:18;7.00;;;3.70;;
61685;SDS011;47592;45.904;8.978;2022-11-15T14:33:44;6.55;;;3.72;;
61685;SDS011;47592;45.904;8.978;2022-11-15T14:38:35;6.35;;;3.35;;
61685;SDS011;47592;45.904;8.978;2022-11-15T14:41:01;5.93;;;3.53;;
61685;SDS011;47592;45.904;8.978;2022-11-15T14:43:26;6.88;;;3.83;;
61685;SDS011;47592;45.904;8.978;2022-11-15T14:45:51;6.72;;;3.70;;
61685;SDS011;47592;45.904;8.978;2022-11-15T14:48:17;6.63;;;3.67;;
61685;SDS011;47592;45.904;8.978;2022-11-15T14:50:42;6.82;;;3.83;;
61685;SDS011;47592;45.904;8.978;2022-11-15T14:53:11;6.78;;;3.65;;
61685;SDS011;47592;45.904;8.978;2022-11-15T14:55:41;6.80;;;4.55;;
61685;SDS011;47592;45.904;8.978;2022-11-15T14:58:06;7.80;;;4.00;;
61685;SDS011;47592;45.904;8.978;2022-11-15T15:00:38;6.55;;;4.15;;
61685;SDS011;47592;45.904;8.978;2022-11-15T15:03:05;6.93;;;4.30;;
61685;SDS011;47592;45.904;8.978;2022-11-15T15:05:49;7.65;;;3.67;;
61685;SDS011;47592;45.904;8.978;2022-11-15T15:08:14;6.95;;;3.95;;
61685;SDS011;47592;45.904;8.978;2022-11-15T15:10:41;7.75;;;4.05;;
61685;SDS011;47592;45.904;8.978;2022-11-15T15:13:18;7.05;;;4.25;;
61685;SDS011;47592;45.904;8.978;2022-11-15T15:15:47;6.72;;;4.05;;
61685;SDS011;47592;45.904;8.978;2022-11-15T15:18:14;9.50;;;4.32;;
61685;SDS011;47592;45.904;8.978;2022-11-15T15:20:40;8.18;;;4.28;;
61685;SDS011;47592;45.904;8.978;2022-11-15T15:23:13;6.88;;;3.55;;
61685;SDS011;47592;45.904;8.978;2022-11-15T15:25:41;7.05;;;4.20;;
61685;SDS011;47592;45.904;8.978;2022-11-15T15:28:07;8.63;;;4.40;;
61685;SDS011;47592;45.904;8.978;2022-11-15T15:30:32;7.85;;;4.40;;
61685;SDS011;47592;45.904;8.978;2022-11-15T15:32:57;6.30;;;3.65;;
61685;SDS011;47592;45.904;8.978;2022-11-15T15:35:23;6.35;;;3.83;;
61685;SDS011;47592;45.904;8.978;2022-11-15T15:37:49;7.00;;;3.70;;
61685;SDS011;47592;45.904;8.978;2022-11-15T15:40:17;7.85;;;3.78;;
61685;SDS011;47592;45.904;8.978;2022-11-15T15:42:50;5.90;;;3.70;;
61685;SDS011;47592;45.904;8.978;2022-11-15T15:45:16;6.95;;;4.20;;
61685;SDS011;47592;45.904;8.978;2022-11-15T15:47:43;9.30;;;4.00;;
61685;SDS011;47592;45.904;8.978;2022-11-15T15:52:43;7.50;;;3.85;;
61685;SDS011;47592;45.904;8.978;2022-11-15T15:55:08;9.98;;;4.43;;
61685;SDS011;47592;45.904;8.978;2022-11-15T15:57:35;7.45;;;4.35;;
61685;SDS011;47592;45.904;8.978;2022-11-15T16:00:00;6.97;;;4.15;;
61685;SDS011;47592;45.904;8.978;2022-11-15T16:02:26;7.30;;;4.00;;
61685;SDS011;47592;45.904;8.978;2022-11-15T16:04:52;6.43;;;3.88;;
61685;SDS011;47592;45.904;8.978;2022-11-15T16:07:20;7.70;;;4.63;;
61685;SDS011;47592;45.904;8.978;2022-11-15T16:09:48;7.47;;;4.13;;
61685;SDS011;47592;45.904;8.978;2022-11-15T16:14:56;9.55;;;6.43;;
61685;SDS011;47592;45.904;8.978;2022-11-15T16:17:22;8.73;;;6.22;;
61685;SDS011;47592;45.904;8.978;2022-11-15T16:19:49;8.85;;;5.72;;
61685;SDS011;47592;45.904;8.978;2022-11-15T16:22:15;8.98;;;5.65;;
61685;SDS011;47592;45.904;8.978;2022-11-15T16:24:40;9.82;;;5.93;;
61685;SDS011;47592;45.904;8.978;2022-11-15T16:27:09;8.70;;;6.03;;
61685;SDS011;47592;45.904;8.978;2022-11-15T16:29:39;8.48;;;5.53;;
61685;SDS011;47592;45.904;8.978;2022-11-15T16:32:04;9.30;;;6.72;;
61685;SDS011;47592;45.904;8.978;2022-11-15T16:34:29;8.98;;;6.22;;
61685;SDS011;47592;45.904;8.978;2022-11-15T16:36:55;10.57;;;6.90;;
61685;SDS011;47592;45.904;8.978;2022-11-15T16:39:20;10.98;;;6.53;;
61685;SDS011;47592;45.904;8.978;2022-11-15T16:41:47;9.95;;;6.50;;
61685;SDS011;47592;45.904;8.978;2022-11-15T16:44:13;8.55;;;5.82;;
61685;SDS011;47592;45.904;8.978;2022-11-15T16:46:40;9.32;;;5.90;;
61685;SDS011;47592;45.904;8.978;2022-11-15T16:49:13;8.75;;;5.70;;
61685;SDS011;47592;45.904;8.978;2022-11-15T16:51:39;10.60;;;6.10;;
61685;SDS011;47592;45.904;8.978;2022-11-15T16:54:06;11.52;;;6.20;;
61685;SDS011;47592;45.904;8.978;2022-11-15T16:56:31;9.43;;;4.93;;
61685;SDS011;47592;45.904;8.978;2022-11-15T16:58:58;8.23;;;5.57;;
61685;SDS011;47592;45.904;8.978;2022-11-15T17:01:25;8.50;;;5.35;;
61685;SDS011;47592;45.904;8.978;2022-11-15T17:03:52;8.25;;;5.45;;
61685;SDS011;47592;45.904;8.978;2022-11-15T17:06:18;8.40;;;5.65;;
61685;SDS011;47592;45.904;8.978;2022-11-15T17:08:45;11.93;;;5.95;;
61685;SDS011;47592;45.904;8.978;2022-11-15T17:11:13;7.97;;;4.93;;
61685;SDS011;47592;45.904;8.978;2022-11-15T17:13:39;7.72;;;5.03;;